Time;durP1;ratioP1;P1;durP2;ratioP2;P2;SDS_P1;SDS_P2;PMS_P1;PMS_P2;Temp;Humidity;BMP_temperature;BMP_pressure;BME280_temperature;BME280_humidity;BME280_pressure;Samples;Min_cycle;Max_cycle;Signal;HPM_P1;HPM_P2
2023/07/21 00:00:17;;;;;;;13.38;11.98;;;14.70;99.90;;;;;;5098255;28;20036;-75
2023/07/21 00:02:43;;;;;;;16.60;13.00;;;14.60;99.90;;;;;;5105907;28;20468;-74
2023/07/21 00:05:09;;;;;;;13.48;12.10;;;14.60;99.90;;;;;;5094372;28;20047;-75
2023/07/21 00:07:35;;;;;;;14.35;12.75;;;14.60;99.90;;;;;;5100222;28;20492;-75
2023/07/21 00:10:08;;;;;;;13.85;12.45;;;14.50;99.90;;;;;;5093631;28;20016;-75
2023/07/21 00:12:35;;;;;;;14.27;12.77;;;14.50;99.90;;;;;;5101873;28;20028;-74
2023/07/21 00:15:01;;;;;;;14.75;13.35;;;14.40;99.90;;;;;;5096402;28;20375;-75
2023/07/21 00:17:28;;;;;;;14.50;13.00;;;14.40;99.90;;;;;;5111423;28;20042;-75
2023/07/21 00:19:53;;;;;;;14.73;13.32;;;14.30;99.90;;;;;;5096738;28;20027;-75
2023/07/21 00:22:19;;;;;;;14.43;12.93;;;14.30;99.90;;;;;;5096899;28;20391;-74
2023/07/21 00:24:45;;;;;;;14.15;12.75;;;14.30;99.90;;;;;;5105523;28;20019;-74
2023/07/21 00:27:11;;;;;;;16.40;13.07;;;14.30;99.90;;;;;;5108085;28;20023;-75
2023/07/21 00:29:37;;;;;;;17.90;13.98;;;14.30;99.90;;;;;;5098348;28;20075;-75
2023/07/21 00:32:02;;;;;;;14.52;12.93;;;14.20;99.90;;;;;;5096306;28;20027;-75
2023/07/21 00:34:28;;;;;;;15.13;13.60;;;14.20;99.90;;;;;;5100393;28;20034;-74
2023/07/21 00:36:57;;;;;;;15.20;13.60;;;14.20;99.90;;;;;;5099899;28;20024;-75
2023/07/21 00:39:22;;;;;;;14.15;12.68;;;14.20;99.90;;;;;;5098080;28;20075;-74
2023/07/21 00:41:48;;;;;;;16.00;13.82;;;14.20;99.90;;;;;;5097043;28;20019;-74
2023/07/21 00:44:13;;;;;;;15.07;13.52;;;14.10;99.90;;;;;;5092357;28;20480;-77
2023/07/21 00:46:40;;;;;;;17.15;13.18;;;14.10;99.90;;;;;;5097745;28;20035;-75
2023/07/21 00:49:05;;;;;;;13.45;12.05;;;14.20;99.90;;;;;;5103949;28;20031;-74
2023/07/21 00:51:31;;;;;;;15.43;13.85;;;14.10;99.90;;;;;;5103709;28;20399;-74
2023/07/21 00:53:57;;;;;;;14.35;12.73;;;14.20;99.90;;;;;;5096481;28;20514;-74
2023/07/21 00:56:23;;;;;;;15.75;13.25;;;14.20;99.90;;;;;;5092784;28;20024;-75
2023/07/21 00:58:49;;;;;;;15.05;13.57;;;14.10;99.90;;;;;;5098039;28;20016;-74
2023/07/21 01:01:15;;;;;;;15.73;14.07;;;14.20;99.90;;;;;;5095360;28;20383;-75
2023/07/21 01:03:41;;;;;;;18.27;15.85;;;14.10;99.90;;;;;;5095939;28;20043;-74
2023/07/21 01:06:08;;;;;;;15.52;13.75;;;14.10;99.90;;;;;;5094761;28;20024;-75
2023/07/21 01:08:35;;;;;;;17.52;15.73;;;14.20;99.90;;;;;;5094715;28;20016;-74
2023/07/21 01:11:01;;;;;;;16.65;14.93;;;14.10;99.90;;;;;;5097615;28;20040;-74
2023/07/21 01:13:27;;;;;;;13.07;11.75;;;14.10;99.90;;;;;;5091806;28;20099;-74
2023/07/21 01:15:55;;;;;;;14.93;13.43;;;14.10;99.90;;;;;;5096751;28;20050;-74
2023/07/21 01:18:22;;;;;;;16.75;14.73;;;14.10;99.90;;;;;;5093410;28;20042;-76
2023/07/21 01:20:49;;;;;;;16.83;15.13;;;14.10;99.90;;;;;;5106651;28;20035;-74
2023/07/21 01:23:24;;;;;;;16.67;14.88;;;14.00;99.90;;;;;;5095190;28;20106;-74
2023/07/21 01:25:52;;;;;;;16.75;14.93;;;14.00;99.90;;;;;;5103206;28;20020;-76
2023/07/21 01:28:18;;;;;;;15.43;13.82;;;13.90;99.90;;;;;;5096281;28;20021;-76
2023/07/21 01:30:48;;;;;;;16.13;14.00;;;13.90;99.90;;;;;;5092893;28;20469;-75
2023/07/21 01:33:20;;;;;;;11.10;10.00;;;13.90;99.90;;;;;;5091991;28;20032;-75
2023/07/21 01:35:50;;;;;;;12.27;10.98;;;13.80;99.90;;;;;;5094108;28;20019;-74
2023/07/21 01:38:18;;;;;;;16.88;14.90;;;13.80;99.90;;;;;;5098015;28;20028;-74
2023/07/21 01:40:44;;;;;;;17.45;15.50;;;13.80;99.90;;;;;;5097375;28;20034;-75
2023/07/21 01:43:11;;;;;;;18.13;16.23;;;13.80;99.90;;;;;;5097047;28;20020;-75
2023/07/21 01:45:38;;;;;;;18.63;16.65;;;13.80;99.90;;;;;;5094565;28;20027;-74
2023/07/21 01:48:04;;;;;;;18.08;15.43;;;13.70;99.90;;;;;;5095027;28;20020;-75
2023/07/21 01:50:30;;;;;;;19.25;17.08;;;13.70;99.90;;;;;;5095144;28;20076;-74
2023/07/21 01:53:00;;;;;;;18.02;16.13;;;13.60;99.90;;;;;;5100707;28;20078;-75
2023/07/21 01:55:30;;;;;;;19.83;17.42;;;13.60;99.90;;;;;;5096572;28;20024;-74
2023/07/21 01:57:58;;;;;;;17.95;16.05;;;13.50;99.90;;;;;;5091928;28;20624;-75
2023/07/21 02:00:29;;;;;;;20.13;17.65;;;13.50;99.90;;;;;;5092416;28;20054;-74
2023/07/21 02:02:56;;;;;;;19.10;17.27;;;13.50;99.90;;;;;;5109283;28;20012;-74
2023/07/21 02:05:24;;;;;;;19.65;17.55;;;13.40;99.90;;;;;;5102525;28;20024;-75
2023/07/21 02:07:50;;;;;;;20.92;18.65;;;13.40;99.90;;;;;;5092566;28;20028;-74
2023/07/21 02:10:17;;;;;;;19.20;17.20;;;13.30;99.90;;;;;;5100872;28;20448;-75
2023/07/21 02:12:42;;;;;;;22.08;19.33;;;13.30;99.90;;;;;;5096176;28;20080;-75
2023/07/21 02:15:09;;;;;;;21.40;19.02;;;13.30;99.90;;;;;;5097263;28;20036;-74
2023/07/21 02:17:34;;;;;;;25.35;19.92;;;13.20;99.90;;;;;;5094261;28;20040;-74
2023/07/21 02:20:02;;;;;;;21.58;19.25;;;13.20;99.90;;;;;;5094854;28;20044;-74
2023/07/21 02:22:29;;;;;;;19.85;17.75;;;13.20;99.90;;;;;;5097367;28;20433;-74
2023/07/21 02:24:54;;;;;;;20.90;18.60;;;13.20;99.90;;;;;;5100636;28;20020;-75
2023/07/21 02:27:20;;;;;;;23.17;20.70;;;13.20;99.90;;;;;;5098495;28;20035;-74
2023/07/21 02:29:48;;;;;;;20.83;17.52;;;13.20;99.90;;;;;;5108554;28;20047;-74
2023/07/21 02:32:14;;;;;;;20.52;18.13;;;13.20;99.90;;;;;;5100360;28;20051;-74
2023/07/21 02:34:41;;;;;;;19.88;17.77;;;13.20;99.90;;;;;;5104962;28;20478;-73
2023/07/21 02:37:06;;;;;;;23.13;19.00;;;13.20;99.90;;;;;;5098890;28;20020;-75
2023/07/21 02:39:32;;;;;;;25.90;20.70;;;13.10;99.90;;;;;;5095658;28;20043;-75
2023/07/21 02:41:59;;;;;;;26.38;22.42;;;13.10;99.90;;;;;;5096703;28;20024;-74
2023/07/21 02:44:25;;;;;;;25.10;22.40;;;13.10;99.90;;;;;;5102854;28;20016;-74
2023/07/21 02:46:51;;;;;;;25.00;20.95;;;13.00;99.90;;;;;;5096727;28;20024;-75
2023/07/21 02:49:17;;;;;;;25.55;22.27;;;13.00;99.90;;;;;;5114478;28;20488;-75
2023/07/21 02:51:43;;;;;;;22.67;18.45;;;12.90;99.90;;;;;;5105963;28;20060;-74
2023/07/21 02:54:08;;;;;;;18.48;16.55;;;12.90;99.90;;;;;;5099856;28;20040;-74
2023/07/21 02:56:34;;;;;;;17.60;15.75;;;12.90;99.90;;;;;;5108830;28;20036;-75
2023/07/21 02:59:01;;;;;;;19.20;16.17;;;12.90;99.90;;;;;;5105977;28;20023;-74
2023/07/21 03:01:28;;;;;;;18.20;16.30;;;12.90;99.90;;;;;;5101057;28;20047;-74
2023/07/21 03:03:54;;;;;;;17.65;14.10;;;12.80;99.90;;;;;;5104336;28;20442;-74
2023/07/21 03:06:20;;;;;;;18.00;16.08;;;12.80;99.90;;;;;;5099747;28;20024;-74
2023/07/21 03:08:46;;;;;;;21.42;19.13;;;12.80;99.90;;;;;;5101763;28;20024;-75
2023/07/21 03:11:13;;;;;;;22.63;20.17;;;12.80;99.90;;;;;;5096800;28;20039;-75
2023/07/21 03:13:40;;;;;;;18.88;15.77;;;12.80;99.90;;;;;;5103540;28;20015;-75
2023/07/21 03:16:07;;;;;;;15.48;13.88;;;12.70;99.90;;;;;;5097894;28;20032;-74
2023/07/21 03:18:32;;;;;;;12.63;11.35;;;12.80;99.90;;;;;;5111049;28;20391;-74
2023/07/21 03:20:59;;;;;;;17.42;14.73;;;12.70;99.90;;;;;;5097985;28;20133;-75
2023/07/21 03:23:25;;;;;;;23.05;18.60;;;12.70;99.90;;;;;;5094914;28;20501;-75
2023/07/21 03:25:51;;;;;;;23.23;19.77;;;12.70;99.90;;;;;;5096321;28;20099;-75
2023/07/21 03:28:16;;;;;;;21.25;18.90;;;12.60;99.90;;;;;;5102976;28;20054;-75
2023/07/21 03:30:43;;;;;;;22.50;20.10;;;12.60;99.90;;;;;;5099584;28;20043;-73
2023/07/21 03:33:09;;;;;;;24.83;21.77;;;12.60;99.90;;;;;;5104409;28;20016;-75
2023/07/21 03:35:34;;;;;;;25.73;22.80;;;12.60;99.90;;;;;;5100323;28;20028;-75
2023/07/21 03:38:00;;;;;;;26.77;23.63;;;12.60;99.90;;;;;;5098610;28;20031;-74
2023/07/21 03:40:25;;;;;;;27.27;23.45;;;12.60;99.90;;;;;;5099414;28;20495;-74
2023/07/21 03:42:52;;;;;;;26.45;23.02;;;12.50;99.90;;;;;;5102513;28;20027;-75
2023/07/21 03:45:18;;;;;;;27.73;23.70;;;12.50;99.90;;;;;;5104479;28;20024;-75
2023/07/21 03:47:43;;;;;;;27.25;23.55;;;12.50;99.90;;;;;;5103014;28;20024;-74
2023/07/21 03:50:09;;;;;;;26.30;23.38;;;12.50;99.90;;;;;;5096453;28;20039;-74
2023/07/21 03:52:35;;;;;;;28.52;22.88;;;12.50;99.90;;;;;;5099160;28;20459;-75
2023/07/21 03:55:00;;;;;;;27.05;22.65;;;12.50;99.90;;;;;;5098889;28;20483;-75
2023/07/21 03:57:26;;;;;;;27.60;23.55;;;12.50;99.90;;;;;;5102635;28;20094;-75
2023/07/21 03:59:52;;;;;;;28.25;23.55;;;12.50;99.90;;;;;;5107482;28;20479;-75
2023/07/21 04:02:18;;;;;;;27.45;22.85;;;12.50;99.90;;;;;;5104044;28;20069;-73
2023/07/21 04:04:45;;;;;;;26.10;22.30;;;12.40;99.90;;;;;;5103085;28;20429;-73
2023/07/21 04:07:11;;;;;;;26.17;23.33;;;12.50;99.90;;;;;;5098155;28;20027;-74
2023/07/21 04:09:37;;;;;;;23.50;20.65;;;12.40;99.90;;;;;;5097551;28;20065;-72
2023/07/21 04:12:03;;;;;;;24.05;20.95;;;12.40;99.90;;;;;;5094625;28;20063;-74
2023/07/21 04:14:30;;;;;;;24.10;20.98;;;12.50;99.90;;;;;;5099341;28;20021;-72
2023/07/21 04:16:56;;;;;;;25.55;22.13;;;12.40;99.90;;;;;;5106079;28;20024;-73
2023/07/21 04:19:21;;;;;;;23.40;20.40;;;12.40;99.90;;;;;;5100141;28;20031;-73
2023/07/21 04:21:47;;;;;;;24.42;21.02;;;12.40;99.90;;;;;;5095427;28;20036;-73
2023/07/21 04:24:13;;;;;;;22.10;19.75;;;12.40;99.90;;;;;;5095299;28;20035;-73
2023/07/21 04:26:39;;;;;;;23.50;19.52;;;12.40;99.90;;;;;;5098424;28;20022;-73
2023/07/21 04:29:06;;;;;;;20.65;18.02;;;12.40;99.90;;;;;;5096272;28;20106;-73
2023/07/21 04:31:32;;;;;;;21.55;19.15;;;12.40;99.90;;;;;;5094685;28;20032;-73
2023/07/21 04:33:58;;;;;;;21.88;18.58;;;12.40;99.90;;;;;;5101320;28;20024;-73
2023/07/21 04:36:24;;;;;;;22.80;19.15;;;12.30;99.90;;;;;;5092942;28;20414;-73
2023/07/21 04:38:49;;;;;;;29.95;22.92;;;12.30;99.90;;;;;;5097258;28;20021;-74
2023/07/21 04:41:16;;;;;;;26.70;21.80;;;12.40;99.90;;;;;;5093889;28;20202;-73
2023/07/21 04:43:42;;;;;;;26.90;22.13;;;12.40;99.90;;;;;;5093399;28;20028;-73
2023/07/21 04:46:09;;;;;;;26.85;22.30;;;12.40;99.90;;;;;;5095468;28;20032;-72
2023/07/21 04:48:35;;;;;;;26.35;22.83;;;12.40;99.90;;;;;;5098139;28;20023;-73
2023/07/21 04:51:01;;;;;;;24.00;21.42;;;12.40;99.90;;;;;;5106542;28;20048;-75
2023/07/21 04:53:26;;;;;;;25.60;22.10;;;12.40;99.90;;;;;;5099543;28;20039;-73
2023/07/21 04:55:56;;;;;;;24.65;20.25;;;12.50;99.90;;;;;;5092209;28;20369;-73
2023/07/21 04:58:22;;;;;;;28.48;22.52;;;12.50;99.90;;;;;;5102714;28;20029;-73
2023/07/21 05:00:48;;;;;;;25.90;22.30;;;12.60;99.90;;;;;;5094838;28;20024;-73
2023/07/21 05:03:13;;;;;;;26.30;22.02;;;12.60;99.90;;;;;;5099267;28;20157;-74
2023/07/21 05:05:39;;;;;;;24.33;21.02;;;12.70;99.90;;;;;;5097541;28;20088;-74
2023/07/21 05:08:05;;;;;;;23.48;20.70;;;12.70;99.90;;;;;;5093375;28;20069;-74
2023/07/21 05:10:31;;;;;;;22.92;20.30;;;12.80;99.90;;;;;;5093588;28;20048;-74
2023/07/21 05:12:57;;;;;;;24.02;21.45;;;12.90;99.90;;;;;;5094682;28;20103;-74
2023/07/21 05:15:24;;;;;;;24.92;21.73;;;13.00;99.90;;;;;;5094284;28;20479;-74
2023/07/21 05:17:50;;;;;;;27.48;23.10;;;13.10;99.90;;;;;;5092411;28;20417;-74
2023/07/21 05:20:15;;;;;;;24.92;22.33;;;13.30;99.90;;;;;;5092735;28;20032;-76
2023/07/21 05:22:41;;;;;;;23.17;20.30;;;13.50;99.90;;;;;;5100629;28;20022;-74
2023/07/21 05:25:08;;;;;;;21.23;18.92;;;13.80;99.90;;;;;;5097683;28;20020;-74
2023/07/21 05:27:34;;;;;;;17.70;15.80;;;14.20;99.90;;;;;;5093570;28;20020;-74
2023/07/21 05:30:00;;;;;;;16.00;14.40;;;14.70;99.90;;;;;;5092560;28;20486;-74
2023/07/21 05:32:26;;;;;;;14.48;13.07;;;15.00;99.90;;;;;;5103704;28;20081;-74
2023/07/21 05:34:51;;;;;;;13.63;12.32;;;15.30;99.90;;;;;;5108455;28;20517;-74
2023/07/21 05:37:17;;;;;;;13.55;12.20;;;15.60;99.90;;;;;;5100803;28;20040;-74
2023/07/21 05:39:43;;;;;;;13.43;12.10;;;15.80;99.90;;;;;;5092352;28;20024;-74
2023/07/21 05:42:08;;;;;;;13.45;12.15;;;16.00;99.90;;;;;;5101940;28;20063;-75
2023/07/21 05:44:34;;;;;;;14.68;13.18;;;16.20;99.90;;;;;;5099346;28;20378;-74
2023/07/21 05:47:00;;;;;;;15.02;13.35;;;16.20;99.90;;;;;;5103643;28;20069;-75
2023/07/21 05:49:26;;;;;;;14.77;13.35;;;16.40;99.90;;;;;;5105864;28;20020;-75
2023/07/21 05:51:52;;;;;;;15.82;14.40;;;16.40;99.90;;;;;;5093240;28;20036;-73
2023/07/21 05:54:18;;;;;;;16.38;14.77;;;16.50;99.90;;;;;;5101841;28;20065;-73
2023/07/21 05:56:44;;;;;;;14.82;13.38;;;16.60;99.90;;;;;;5090311;28;20024;-73
2023/07/21 05:59:09;;;;;;;14.32;13.02;;;16.70;99.90;;;;;;5096354;28;20389;-72
2023/07/21 06:01:36;;;;;;;14.27;12.98;;;16.80;99.90;;;;;;5095440;28;20028;-72
2023/07/21 06:04:03;;;;;;;12.98;11.30;;;16.90;99.90;;;;;;5108594;28;20192;-73
2023/07/21 06:06:29;;;;;;;13.88;12.40;;;16.90;99.90;;;;;;5100888;28;20020;-73
2023/07/21 06:08:55;;;;;;;12.43;11.23;;;16.90;99.90;;;;;;5095253;28;20024;-73
2023/07/21 06:11:22;;;;;;;13.20;11.90;;;16.90;99.90;;;;;;5104879;28;20110;-74
2023/07/21 06:13:48;;;;;;;11.57;10.48;;;17.00;99.90;;;;;;5103427;28;20380;-73
2023/07/21 06:16:13;;;;;;;12.52;11.23;;;17.00;99.90;;;;;;5104010;28;20034;-74
2023/07/21 06:18:39;;;;;;;13.93;11.13;;;17.10;99.90;;;;;;5100728;28;20024;-74
2023/07/21 06:21:04;;;;;;;10.68;9.68;;;17.20;99.90;;;;;;5101557;28;20077;-73
2023/07/21 06:23:30;;;;;;;10.95;9.85;;;17.20;99.90;;;;;;5105261;28;20058;-73
2023/07/21 06:25:56;;;;;;;8.75;7.85;;;17.40;99.90;;;;;;5097002;28;20035;-72
2023/07/21 06:28:21;;;;;;;7.72;6.93;;;17.40;99.90;;;;;;5098918;28;20016;-72
2023/07/21 06:30:47;;;;;;;9.07;7.20;;;17.50;99.90;;;;;;5096226;28;20126;-72
2023/07/21 06:33:14;;;;;;;8.75;6.95;;;17.50;99.90;;;;;;5095980;28;20055;-74
2023/07/21 06:35:40;;;;;;;6.55;5.72;;;17.60;99.90;;;;;;5099464;28;20466;-73
2023/07/21 06:38:07;;;;;;;7.57;6.40;;;17.80;99.90;;;;;;5103335;28;20060;-72
2023/07/21 06:40:33;;;;;;;6.30;5.70;;;17.90;99.90;;;;;;5095615;28;20034;-73
2023/07/21 06:42:59;;;;;;;7.50;6.80;;;18.00;99.90;;;;;;5104495;28;20042;-72
2023/07/21 06:45:25;;;;;;;7.05;5.97;;;18.10;99.90;;;;;;5097075;28;20145;-73
2023/07/21 06:47:51;;;;;;;7.50;6.57;;;18.30;99.90;;;;;;5102397;28;20429;-72
2023/07/21 06:50:17;;;;;;;7.35;6.65;;;18.40;99.90;;;;;;5101140;28;20036;-73
2023/07/21 06:52:42;;;;;;;7.53;6.75;;;18.60;99.90;;;;;;5102534;28;20080;-73
2023/07/21 06:55:08;;;;;;;9.30;6.82;;;18.80;99.90;;;;;;5099477;28;20504;-72
2023/07/21 06:57:34;;;;;;;7.55;5.53;;;18.90;99.90;;;;;;5096405;28;20095;-73
2023/07/21 07:00:00;;;;;;;6.30;5.70;;;19.00;99.90;;;;;;5109857;28;20114;-73
2023/07/21 07:02:25;;;;;;;6.45;5.72;;;19.10;99.90;;;;;;5105193;28;20028;-73
2023/07/21 07:04:54;;;;;;;7.85;5.28;;;19.20;99.90;;;;;;5099202;28;20028;-73
2023/07/21 07:07:20;;;;;;;4.88;4.22;;;19.20;99.90;;;;;;5095738;28;20024;-73
2023/07/21 07:09:46;;;;;;;4.65;4.25;;;19.30;99.90;;;;;;5095239;28;20396;-73
2023/07/21 07:12:11;;;;;;;7.30;4.30;;;19.30;99.90;;;;;;5094031;28;20016;-73
2023/07/21 07:14:37;;;;;;;4.78;4.30;;;19.40;99.90;;;;;;5104320;28;20038;-73
2023/07/21 07:17:02;;;;;;;6.22;4.38;;;19.40;99.90;;;;;;5098382;28;20104;-72
2023/07/21 07:19:28;;;;;;;5.35;3.30;;;19.50;99.90;;;;;;5106315;28;20043;-73
2023/07/21 07:21:53;;;;;;;7.13;4.07;;;19.60;99.90;;;;;;5098940;28;20086;-72
2023/07/21 07:24:20;;;;;;;4.70;4.20;;;19.70;99.90;;;;;;5109423;28;20061;-73
2023/07/21 07:26:46;;;;;;;7.57;4.68;;;19.80;99.90;;;;;;5118311;28;20024;-73
2023/07/21 07:29:12;;;;;;;5.70;4.75;;;19.80;99.90;;;;;;5113243;28;20077;-73
2023/07/21 07:31:38;;;;;;;6.68;5.80;;;19.90;99.90;;;;;;5101966;28;20048;-74
2023/07/21 07:34:04;;;;;;;6.88;5.88;;;19.90;99.90;;;;;;5109173;28;20079;-75
2023/07/21 07:36:31;;;;;;;7.85;5.30;;;19.90;99.90;;;;;;5115099;28;20098;-74
2023/07/21 07:38:56;;;;;;;7.68;5.43;;;19.90;99.90;;;;;;5095327;28;20048;-74
2023/07/21 07:41:22;;;;;;;9.73;5.90;;;20.00;99.90;;;;;;5100124;28;20104;-74
2023/07/21 07:43:47;;;;;;;5.85;5.25;;;20.20;99.90;;;;;;5106329;28;20049;-74
2023/07/21 07:46:13;;;;;;;5.22;4.72;;;20.40;99.90;;;;;;5103555;28;20498;-74
2023/07/21 07:48:39;;;;;;;5.93;4.35;;;20.60;99.90;;;;;;5098382;28;20031;-73
2023/07/21 07:51:05;;;;;;;6.05;5.13;;;20.70;99.90;;;;;;5096725;28;20042;-73
2023/07/21 07:53:32;;;;;;;4.75;4.30;;;20.90;99.90;;;;;;5102293;28;20115;-74
2023/07/21 07:55:57;;;;;;;5.45;4.55;;;21.00;99.90;;;;;;5096186;28;20027;-73
2023/07/21 07:58:23;;;;;;;5.18;3.88;;;21.10;99.90;;;;;;5105654;28;20111;-73
2023/07/21 08:00:48;;;;;;;5.43;4.93;;;21.30;99.90;;;;;;5093933;28;20119;-73
2023/07/21 08:03:14;;;;;;;6.63;4.30;;;21.40;99.90;;;;;;5101635;28;20051;-73
2023/07/21 08:05:41;;;;;;;4.32;3.92;;;21.50;99.90;;;;;;5105503;28;20097;-73
2023/07/21 08:08:08;;;;;;;4.60;3.53;;;21.50;99.90;;;;;;5099531;28;20104;-73
2023/07/21 08:10:34;;;;;;;2.92;2.50;;;21.70;99.90;;;;;;5094203;28;20028;-73
2023/07/21 08:13:04;;;;;;;3.53;1.60;;;21.90;99.90;;;;;;5094225;28;20020;-73
2023/07/21 08:15:29;;;;;;;3.67;2.05;;;21.90;99.90;;;;;;5093482;28;20032;-73
2023/07/21 08:17:55;;;;;;;6.05;2.90;;;22.00;99.90;;;;;;5100866;28;20076;-74
2023/07/21 08:20:21;;;;;;;3.15;2.47;;;22.00;99.90;;;;;;5103723;28;20034;-73
2023/07/21 08:22:47;;;;;;;4.28;2.17;;;22.00;99.90;;;;;;5102397;28;20027;-73
2023/07/21 08:25:13;;;;;;;5.43;3.08;;;22.10;99.90;;;;;;5093785;28;20051;-73
2023/07/21 08:27:39;;;;;;;2.47;1.40;;;22.10;99.90;;;;;;5102936;28;20107;-73
2023/07/21 08:30:08;;;;;;;4.10;2.30;;;22.10;99.40;;;;;;5096347;28;20107;-74
2023/07/21 08:32:33;;;;;;;2.03;1.48;;;22.20;99.10;;;;;;5093325;28;20028;-73
2023/07/21 08:34:59;;;;;;;5.72;2.40;;;22.40;98.50;;;;;;5098138;28;20616;-73
2023/07/21 08:37:24;;;;;;;3.25;2.20;;;22.60;97.30;;;;;;5096129;28;20028;-73
2023/07/21 08:39:50;;;;;;;4.93;3.00;;;22.60;97.00;;;;;;5101453;27;21139;-73
2023/07/21 08:42:16;;;;;;;6.82;4.43;;;22.60;96.90;;;;;;5102935;28;20063;-73
2023/07/21 08:44:42;;;;;;;4.53;3.47;;;22.60;97.00;;;;;;5096276;28;20020;-73
2023/07/21 08:47:08;;;;;;;4.75;3.70;;;22.70;97.10;;;;;;5096093;28;20027;-73
2023/07/21 08:49:33;;;;;;;5.35;3.53;;;22.70;96.70;;;;;;5097423;28;20504;-74
2023/07/21 08:51:59;;;;;;;4.72;3.58;;;22.60;96.00;;;;;;5091041;28;20123;-74
2023/07/21 08:54:26;;;;;;;5.00;4.50;;;22.60;96.00;;;;;;5090855;28;20098;-74
2023/07/21 08:56:51;;;;;;;5.50;4.40;;;22.60;95.90;;;;;;5085382;28;20031;-74
2023/07/21 08:59:20;;;;;;;5.50;4.57;;;22.70;96.10;;;;;;5085891;28;20011;-74
2023/07/21 09:01:45;;;;;;;6.15;5.55;;;22.70;96.10;;;;;;5092920;28;20043;-74
2023/07/21 09:04:25;;;;;;;6.97;5.78;;;22.80;95.70;;;;;;5084782;28;20300;-73
2023/07/21 09:06:58;;;;;;;6.32;4.28;;;22.80;95.70;;;;;;5088548;28;20035;-73
2023/07/21 09:09:29;;;;;;;7.80;4.30;;;22.80;95.50;;;;;;5093087;28;20024;-74
2023/07/21 09:12:04;;;;;;;4.63;3.92;;;22.80;95.70;;;;;;5098336;28;20482;-74
2023/07/21 09:14:42;;;;;;;8.68;4.68;;;22.90;95.40;;;;;;5093067;28;20198;-74
2023/07/21 09:17:10;;;;;;;5.38;4.70;;;23.10;95.10;;;;;;5103590;28;20028;-74
2023/07/21 09:19:37;;;;;;;3.28;2.95;;;23.30;94.40;;;;;;5105460;28;20081;-75
2023/07/21 09:22:03;;;;;;;5.78;4.10;;;23.30;93.60;;;;;;5094051;28;20472;-74
2023/07/21 09:24:28;;;;;;;4.68;3.05;;;23.10;93.20;;;;;;5094200;28;20042;-74
2023/07/21 09:27:14;;;;;;;5.40;3.17;;;23.00;93.30;;;;;;5098383;28;20027;-74
2023/07/21 09:29:40;;;;;;;5.90;3.80;;;22.80;93.00;;;;;;5100938;28;20387;-74
2023/07/21 09:32:18;;;;;;;3.90;3.50;;;22.70;92.50;;;;;;5095840;28;20035;-74
2023/07/21 09:34:58;;;;;;;5.20;3.38;;;22.60;92.50;;;;;;5091571;28;20024;-73
2023/07/21 09:37:29;;;;;;;4.68;3.10;;;22.60;92.60;;;;;;5093610;28;20028;-73
2023/07/21 09:39:57;;;;;;;4.05;3.50;;;22.50;92.10;;;;;;5099711;28;20039;-73
2023/07/21 09:42:24;;;;;;;4.28;2.47;;;22.50;91.70;;;;;;5095749;28;20474;-74
2023/07/21 09:44:52;;;;;;;3.20;1.80;;;22.60;91.90;;;;;;5094917;27;20032;-72
2023/07/21 09:47:19;;;;;;;4.15;2.70;;;22.70;91.30;;;;;;5096096;28;20103;-73
2023/07/21 09:49:45;;;;;;;3.65;2.60;;;22.80;90.80;;;;;;5110999;28;20034;-72
2023/07/21 09:52:17;;;;;;;3.58;3.17;;;22.90;90.90;;;;;;5096814;28;20146;-73
2023/07/21 09:55:10;;;;;;;3.42;2.80;;;22.90;90.60;;;;;;5090226;28;20132;-73
2023/07/21 09:57:40;;;;;;;;;;;22.80;90.90;;;;;;5102079;28;20023;-73
2023/07/21 10:00:12;;;;;;;5.88;2.63;;;22.70;91.00;;;;;;5090663;28;19904;-73
2023/07/21 10:02:50;;;;;;;4.50;2.03;;;22.40;91.30;;;;;;5105053;28;20506;-73
2023/07/21 10:05:16;;;;;;;3.33;1.80;;;22.10;91.40;;;;;;5098485;28;20038;-73
2023/07/21 10:07:43;;;;;;;2.70;2.08;;;21.80;91.80;;;;;;5095201;28;20492;-73
2023/07/21 10:10:11;;;;;;;2.90;2.05;;;21.60;92.10;;;;;;5097808;28;20127;-72
2023/07/21 10:12:51;;;;;;;3.38;2.50;;;21.30;92.40;;;;;;5091841;28;20020;-73
2023/07/21 10:15:20;;;;;;;4.95;2.75;;;21.20;92.80;;;;;;5088527;28;20020;-72
2023/07/21 10:18:14;;;;;;;5.00;3.33;;;21.10;93.20;;;;;;5103149;28;20024;-72
2023/07/21 10:20:49;;;;;;;2.47;1.88;;;21.10;93.20;;;;;;5087788;28;20032;-72
2023/07/21 10:23:18;;;;;;;5.95;2.28;;;21.20;93.20;;;;;;5096437;28;20171;-72
2023/07/21 10:25:58;;;;;;;3.10;2.03;;;21.20;93.20;;;;;;5092588;28;20032;-72
2023/07/21 10:28:30;;;;;;;3.85;2.00;;;21.30;92.80;;;;;;5095954;28;20106;-73
2023/07/21 10:31:21;;;;;;;3.83;2.30;;;21.50;92.50;;;;;;5102270;28;20074;-73
2023/07/21 10:34:13;;;;;;;3.28;2.17;;;21.80;92.40;;;;;;5092426;28;20066;-73
2023/07/21 10:36:48;;;;;;;3.72;2.00;;;22.10;92.50;;;;;;5097159;28;20020;-73
2023/07/21 10:39:16;;;;;;;2.65;2.10;;;22.40;92.00;;;;;;5090961;28;20080;-75
2023/07/21 10:41:43;;;;;;;3.67;2.08;;;22.70;91.40;;;;;;5091015;28;20102;-73
2023/07/21 10:44:09;;;;;;;2.70;1.73;;;22.90;90.80;;;;;;5094151;28;20035;-73
2023/07/21 10:46:36;;;;;;;2.83;1.67;;;23.00;90.70;;;;;;5103055;28;20463;-73
2023/07/21 10:49:02;;;;;;;3.75;2.00;;;23.20;90.50;;;;;;5102545;28;20083;-74
2023/07/21 10:51:29;;;;;;;3.17;0.90;;;23.30;88.40;;;;;;5107008;28;20495;-73
2023/07/21 10:53:59;;;;;;;2.55;1.00;;;23.30;87.70;;;;;;5099412;28;20040;-74
2023/07/21 10:56:24;;;;;;;1.70;1.05;;;23.50;86.80;;;;;;5095168;28;20046;-74
2023/07/21 10:58:50;;;;;;;1.25;0.50;;;23.60;86.10;;;;;;5100065;28;20455;-73
2023/07/21 11:01:19;;;;;;;2.55;1.00;;;23.70;84.70;;;;;;5100521;28;20035;-73
2023/07/21 11:03:46;;;;;;;3.17;1.20;;;23.70;83.70;;;;;;5094851;28;20031;-74
2023/07/21 11:06:12;;;;;;;3.42;1.10;;;23.60;83.30;;;;;;5109685;27;20107;-73
2023/07/21 11:08:38;;;;;;;2.17;0.70;;;23.80;83.50;;;;;;5104977;28;20061;-73
2023/07/21 11:11:03;;;;;;;2.80;0.80;;;23.90;82.80;;;;;;5102515;28;20447;-73
2023/07/21 11:13:29;;;;;;;2.83;0.85;;;23.90;81.80;;;;;;5113047;27;20110;-73
2023/07/21 11:15:56;;;;;;;2.63;0.80;;;23.90;81.30;;;;;;5113132;27;20103;-73
2023/07/21 11:18:22;;;;;;;2.63;0.68;;;24.00;80.70;;;;;;5108207;27;20070;-73
2023/07/21 11:20:52;;;;;;;3.00;0.93;;;24.00;80.00;;;;;;5114581;28;20095;-73
2023/07/21 11:23:22;;;;;;;2.63;0.70;;;24.20;78.40;;;;;;5095220;28;20095;-74
2023/07/21 11:26:10;;;;;;;1.15;0.45;;;24.20;77.60;;;;;;5104036;28;20080;-73
2023/07/21 11:28:39;;;;;;;1.80;0.63;;;24.20;78.00;;;;;;5102947;28;20016;-74
2023/07/21 11:31:15;;;;;;;1.88;0.45;;;24.10;77.00;;;;;;5105595;28;20024;-74
2023/07/21 11:33:47;;;;;;;3.20;0.82;;;24.00;77.10;;;;;;5109336;28;20022;-74
2023/07/21 11:36:14;;;;;;;1.70;0.77;;;23.80;76.50;;;;;;5107901;28;20032;-74
2023/07/21 11:38:39;;;;;;;9.27;1.05;;;23.60;76.60;;;;;;5095181;28;20063;-75
2023/07/21 11:41:07;;;;;;;1.80;0.93;;;23.40;77.70;;;;;;5099807;28;20055;-73
2023/07/21 11:43:47;;;;;;;1.80;0.88;;;23.30;78.40;;;;;;5097241;28;20376;-74
2023/07/21 11:46:25;;;;;;;2.35;0.85;;;23.20;78.90;;;;;;5112694;28;20055;-74
2023/07/21 11:48:51;;;;;;;1.40;0.70;;;23.10;78.40;;;;;;5095223;28;20114;-73
2023/07/21 11:51:17;;;;;;;2.38;1.05;;;23.10;79.10;;;;;;5104114;28;20031;-73
2023/07/21 11:53:47;;;;;;;2.38;1.10;;;23.00;79.10;;;;;;5101345;28;20135;-74
2023/07/21 11:56:14;;;;;;;1.60;1.10;;;23.10;79.30;;;;;;5101221;28;20543;-74
2023/07/21 11:58:40;;;;;;;4.22;1.40;;;23.10;79.20;;;;;;5101436;28;20024;-74
2023/07/21 12:01:07;;;;;;;3.40;1.98;;;23.00;79.50;;;;;;5102379;28;20016;-73
2023/07/21 12:03:37;;;;;;;3.20;2.15;;;23.00;81.10;;;;;;5097300;28;20059;-73
2023/07/21 12:06:03;;;;;;;4.75;3.38;;;22.70;83.20;;;;;;5097610;28;20417;-73
2023/07/21 12:08:30;;;;;;;6.88;3.72;;;22.30;85.60;;;;;;5104280;28;20391;-73
2023/07/21 12:10:56;;;;;;;4.18;2.65;;;22.10;87.10;;;;;;5104646;28;20063;-74
2023/07/21 12:13:22;;;;;;;4.53;2.00;;;21.80;88.10;;;;;;5103512;28;20023;-73
2023/07/21 12:15:49;;;;;;;2.55;1.75;;;21.50;89.10;;;;;;5100118;28;20048;-74
2023/07/21 12:18:14;;;;;;;3.25;1.45;;;21.30;90.20;;;;;;5108082;28;20559;-73
2023/07/21 12:20:40;;;;;;;4.53;1.02;;;21.20;90.20;;;;;;5097920;28;20035;-74
2023/07/21 12:23:06;;;;;;;3.35;1.10;;;21.10;90.20;;;;;;5095760;22;20106;-94
2023/07/21 12:25:33;;;;;;;4.55;0.95;;;21.10;90.40;;;;;;5046656;28;20036;-93
2023/07/21 12:27:59;;;;;;;2.90;0.70;;;21.20;90.20;;;;;;5040193;28;20025;-92
2023/07/21 12:30:25;;;;;;;2.35;0.75;;;21.40;90.10;;;;;;5032793;28;20095;-93
2023/07/21 12:32:50;;;;;;;1.25;0.60;;;21.70;90.00;;;;;;5037264;28;20028;-93
2023/07/21 12:35:16;;;;;;;1.40;0.70;;;22.10;88.80;;;;;;5028151;28;20029;-94
2023/07/21 12:37:42;;;;;;;2.47;0.60;;;22.30;86.90;;;;;;5025703;28;20480;-94